Republic, Missouri
Current Conditions -  °F | °C
As of 6:52 AM on Sunday 21 Dec 2014 (Local Time) from KSGF Reporting Station
Overcast Overcast  
Wind Chill: 35°   Ceiling: 2400
Heat Index: 41°   Visibility: 10mi
Dew Point: 36°   Wind: 9mph
Humidity: 82%   Direction: 150°SSE
Pressure: 30.1"   Gusts: NA
Location:  37.13°N, 93.48°W
Report Text: KSGF 211252Z 15008KT 10SM OVC024 05/02 A3010 RMK AO2 SLP198 T00500022
Loading
Personal Weather Stations






























Interactive Weather Map New forecast layout! Learn more

10-Day Weather Forecast

Advertisements
Track Severe Weather on mobile